Time;durP1;ratioP1;P1;durP2;ratioP2;P2;SDS_P1;SDS_P2;PMS_P1;PMS_P2;Temp;Humidity;BMP_temperature;BMP_pressure;BME280_temperature;BME280_humidity;BME280_pressure;Samples;Min_cycle;Max_cycle;Signal;HPM_P1;HPM_P2
2021/01/05 00:01:35;;;;;;;33.33;13.50;;;1.80;87.30;;;;;;5048178;28;20188;-71
2021/01/05 00:04:01;;;;;;;35.73;14.30;;;1.80;88.00;;;;;;5047517;28;20505;-74
2021/01/05 00:06:26;;;;;;;28.33;11.77;;;1.70;88.40;;;;;;5058814;28;20657;-72
2021/01/05 00:08:52;;;;;;;29.60;13.17;;;1.70;88.90;;;;;;5053409;28;20196;-73
2021/01/05 00:11:18;;;;;;;28.97;13.13;;;1.70;89.00;;;;;;5071686;28;20308;-72
2021/01/05 00:13:44;;;;;;;29.50;13.10;;;1.80;89.00;;;;;;5073764;28;20212;-73
2021/01/05 00:16:09;;;;;;;23.67;11.57;;;1.80;89.00;;;;;;5067376;28;20194;-73
2021/01/05 00:18:35;;;;;;;27.97;12.43;;;1.80;89.00;;;;;;5066807;28;20255;-73
2021/01/05 00:21:01;;;;;;;28.37;12.40;;;1.80;89.30;;;;;;5050064;28;20185;-75
2021/01/05 00:23:27;;;;;;;26.13;13.10;;;1.80;89.60;;;;;;5052204;28;20204;-73
2021/01/05 00:25:52;;;;;;;29.20;12.50;;;1.80;89.70;;;;;;5057583;28;20200;-72
2021/01/05 00:28:18;;;;;;;30.50;12.97;;;1.90;89.90;;;;;;5073323;28;20190;-73
2021/01/05 00:30:44;;;;;;;27.87;12.97;;;1.90;89.60;;;;;;5069061;28;20239;-72
2021/01/05 00:33:10;;;;;;;28.10;13.20;;;2.00;89.50;;;;;;5063206;28;20215;-72
2021/01/05 00:35:39;;;;;;;32.30;13.93;;;1.90;89.30;;;;;;5059506;28;20176;-73
2021/01/05 00:38:07;;;;;;;28.77;13.30;;;1.80;89.60;;;;;;5059917;28;20177;-72
2021/01/05 00:40:33;;;;;;;29.20;12.10;;;1.80;89.70;;;;;;5049681;28;20194;-71
2021/01/05 00:42:59;;;;;;;31.02;14.25;;;1.80;90.10;;;;;;5048406;28;20214;-72
2021/01/05 00:45:34;;;;;;;34.83;15.00;;;1.80;90.20;;;;;;5048968;28;20180;-74
2021/01/05 00:48:01;;;;;;;29.33;13.13;;;1.80;90.30;;;;;;5049699;28;20184;-71
2021/01/05 00:50:27;;;;;;;36.85;14.75;;;1.70;90.40;;;;;;5049163;28;20190;-73
2021/01/05 00:52:53;;;;;;;32.90;13.40;;;1.70;90.60;;;;;;5049552;28;20246;-73
2021/01/05 00:55:19;;;;;;;32.60;13.90;;;1.60;90.60;;;;;;5049198;28;20243;-72
2021/01/05 00:57:46;;;;;;;27.27;12.73;;;1.60;90.80;;;;;;5062471;28;20219;-74
2021/01/05 01:00:23;;;;;;;27.70;12.53;;;1.70;90.90;;;;;;5049376;28;20188;-74
2021/01/05 01:02:50;;;;;;;28.77;13.25;;;1.70;91.00;;;;;;5049398;28;20795;-73
2021/01/05 01:05:16;;;;;;;33.72;14.00;;;1.70;91.00;;;;;;5048854;28;20610;-73
2021/01/05 01:07:42;;;;;;;29.13;13.27;;;1.70;91.00;;;;;;5034754;28;20227;-73
2021/01/05 01:10:08;;;;;;;35.53;14.73;;;1.70;91.00;;;;;;5049233;28;20823;-72
2021/01/05 01:12:34;;;;;;;27.58;13.27;;;1.70;91.00;;;;;;5049566;28;20326;-73
2021/01/05 01:15:00;;;;;;;38.93;14.77;;;1.70;91.00;;;;;;5049171;28;20731;-73
2021/01/05 01:17:26;;;;;;;27.70;13.50;;;1.60;91.20;;;;;;5062076;28;20177;-72
2021/01/05 01:19:52;;;;;;;28.95;13.20;;;1.60;91.50;;;;;;5050773;28;20189;-72
2021/01/05 01:22:20;;;;;;;33.22;13.05;;;1.60;91.60;;;;;;5060522;28;20208;-73
2021/01/05 01:24:47;;;;;;;31.08;13.40;;;1.60;91.60;;;;;;5049155;28;20209;-72
2021/01/05 01:27:13;;;;;;;33.05;14.10;;;1.70;91.50;;;;;;5049440;28;20652;-73
2021/01/05 01:29:38;;;;;;;27.70;13.80;;;1.70;91.50;;;;;;5048119;28;20220;-73
2021/01/05 01:32:04;;;;;;;28.90;12.83;;;1.70;91.40;;;;;;5047533;28;20219;-73
2021/01/05 01:34:30;;;;;;;32.75;13.63;;;1.80;91.20;;;;;;5048225;28;20220;-73
2021/01/05 01:37:08;;;;;;;30.53;14.17;;;1.80;91.10;;;;;;5047595;28;20184;-71
2021/01/05 01:39:34;;;;;;;37.40;15.43;;;1.80;91.10;;;;;;5049037;28;20202;-72
2021/01/05 01:42:04;;;;;;;32.83;13.65;;;1.80;91.10;;;;;;5048699;28;20207;-73
2021/01/05 01:44:33;;;;;;;29.50;13.80;;;1.70;91.30;;;;;;5061536;28;20269;-74
2021/01/05 01:47:05;;;;;;;32.13;13.20;;;1.60;91.60;;;;;;5048967;28;20246;-72
2021/01/05 01:49:31;;;;;;;38.45;15.32;;;1.50;92.00;;;;;;5049383;28;20250;-72
2021/01/05 01:51:57;;;;;;;37.20;14.70;;;1.60;92.10;;;;;;5048722;28;20208;-72
2021/01/05 01:54:43;;;;;;;33.27;14.50;;;1.60;92.00;;;;;;5062545;28;20476;-72
2021/01/05 01:57:37;;;;;;;30.63;13.50;;;1.60;91.90;;;;;;5068429;28;20689;-72
2021/01/05 02:00:29;;;;;;;29.45;14.60;;;1.70;91.90;;;;;;5067308;28;20282;-74
2021/01/05 02:03:04;;;;;;;29.27;13.43;;;1.70;91.70;;;;;;5071344;28;20192;-73
2021/01/05 02:05:40;;;;;;;29.40;13.30;;;1.80;91.60;;;;;;5071111;28;20187;-73
2021/01/05 02:08:35;;;;;;;34.85;14.48;;;1.80;91.70;;;;;;5070492;28;20187;-71
2021/01/05 02:11:20;;;;;;;38.75;15.10;;;1.90;91.50;;;;;;5053695;28;20177;-74
2021/01/05 02:14:11;;;;;;;33.22;14.40;;;2.00;91.10;;;;;;5055365;28;20228;-73
2021/01/05 02:17:03;;;;;;;33.45;13.65;;;1.90;90.80;;;;;;5042766;28;20187;-72
2021/01/05 02:19:34;;;;;;;32.38;13.68;;;1.90;91.10;;;;;;5048649;28;20322;-71
2021/01/05 02:22:21;;;;;;;31.17;14.23;;;2.00;91.10;;;;;;5049336;28;20188;-73
2021/01/05 02:25:09;;;;;;;26.83;14.43;;;2.00;90.80;;;;;;5048937;28;20250;-73
2021/01/05 02:27:41;;;;;;;32.33;13.93;;;2.00;90.80;;;;;;5048895;28;20274;-71
2021/01/05 02:30:11;;;;;;;30.27;13.65;;;2.00;91.00;;;;;;5049404;28;20184;-73
2021/01/05 02:33:02;;;;;;;27.20;13.20;;;2.00;90.80;;;;;;5050169;28;20230;-73
2021/01/05 02:36:06;;;;;;;34.97;14.80;;;2.00;90.70;;;;;;5046885;28;20228;-73
2021/01/05 02:38:59;;;;;;;33.38;15.50;;;2.00;90.70;;;;;;5047644;28;20188;-74
2021/01/05 02:42:03;;;;;;;34.70;13.20;;;2.00;90.80;;;;;;5048198;28;20185;-75
2021/01/05 02:44:44;;;;;;;42.35;15.43;;;1.90;91.00;;;;;;5048802;28;20803;-73
2021/01/05 02:47:10;;;;;;;35.70;15.80;;;1.70;91.40;;;;;;5057197;28;20208;-74
2021/01/05 02:49:41;;;;;;;33.23;14.50;;;1.60;91.90;;;;;;5048625;28;20239;-73
2021/01/05 02:52:32;;;;;;;32.40;15.13;;;1.70;92.10;;;;;;5059574;28;20501;-73
2021/01/05 02:55:16;;;;;;;45.03;15.07;;;1.70;91.90;;;;;;5067804;28;20195;-72
2021/01/05 02:58:08;;;;;;;30.75;14.40;;;1.70;91.90;;;;;;5049890;28;20259;-74
2021/01/05 03:00:49;;;;;;;42.50;15.60;;;1.70;92.10;;;;;;5048159;28;20180;-74
2021/01/05 03:03:36;;;;;;;39.03;15.13;;;1.80;91.90;;;;;;5047185;28;20212;-73
2021/01/05 03:06:30;;;;;;;32.45;14.02;;;1.80;91.80;;;;;;5033064;28;20623;-73
2021/01/05 03:09:37;;;;;;;37.65;14.60;;;1.80;91.70;;;;;;5047256;28;20193;-73
2021/01/05 03:12:10;;;;;;;43.58;17.67;;;1.70;91.90;;;;;;5064769;28;20220;-73
2021/01/05 03:15:00;;;;;;;35.45;15.18;;;1.80;92.10;;;;;;5054321;28;20279;-73
2021/01/05 03:17:34;;;;;;;39.35;15.93;;;1.70;92.20;;;;;;5050380;28;20194;-73
2021/01/05 03:20:11;;;;;;;48.75;17.92;;;1.60;92.30;;;;;;5060380;28;20191;-73
2021/01/05 03:22:47;;;;;;;42.40;18.30;;;1.60;92.70;;;;;;5060264;28;20276;-74
2021/01/05 03:25:13;;;;;;;43.15;17.73;;;1.60;92.80;;;;;;5051571;28;20215;-73
2021/01/05 03:27:40;;;;;;;41.78;16.63;;;1.70;92.90;;;;;;5051147;28;20671;-75
2021/01/05 03:30:19;;;;;;;48.55;17.42;;;1.70;92.80;;;;;;5051473;28;20184;-75
2021/01/05 03:32:45;;;;;;;40.78;17.35;;;1.70;92.90;;;;;;5052530;28;20216;-73
2021/01/05 03:35:11;;;;;;;49.27;17.90;;;1.80;93.00;;;;;;5054708;28;20204;-73
2021/01/05 03:37:36;;;;;;;43.70;18.70;;;1.70;92.90;;;;;;5050997;28;20191;-73
2021/01/05 03:40:03;;;;;;;48.07;18.53;;;1.70;93.00;;;;;;5051105;28;20415;-74
2021/01/05 03:42:29;;;;;;;46.50;18.58;;;1.60;93.20;;;;;;5049777;28;20207;-73
2021/01/05 03:44:54;;;;;;;47.27;18.13;;;1.70;93.30;;;;;;5050432;28;20208;-73
2021/01/05 03:47:20;;;;;;;49.83;18.80;;;1.70;93.30;;;;;;5062075;28;20203;-72
2021/01/05 03:49:46;;;;;;;40.80;17.70;;;1.80;93.50;;;;;;5055949;28;20200;-72
2021/01/05 03:52:11;;;;;;;45.70;19.20;;;1.80;93.10;;;;;;5058241;28;20211;-74
2021/01/05 03:54:37;;;;;;;48.80;17.97;;;1.80;93.00;;;;;;5055154;28;20208;-74
2021/01/05 03:57:03;;;;;;;44.30;17.93;;;1.80;93.00;;;;;;5057923;28;20187;-72
2021/01/05 03:59:29;;;;;;;48.50;19.20;;;1.90;92.90;;;;;;5056793;28;20241;-72
2021/01/05 04:01:54;;;;;;;40.40;16.97;;;1.90;92.70;;;;;;5057713;28;20809;-73
2021/01/05 04:04:21;;;;;;;51.77;19.00;;;2.00;92.80;;;;;;5054778;28;20220;-72
2021/01/05 04:06:47;;;;;;;39.53;16.55;;;2.00;92.70;;;;;;5068875;28;20194;-72
2021/01/05 04:09:13;;;;;;;37.53;15.70;;;2.10;92.60;;;;;;5050914;28;20196;-73
2021/01/05 04:11:39;;;;;;;46.63;17.25;;;2.10;92.50;;;;;;5050173;28;20814;-71
2021/01/05 04:14:05;;;;;;;40.17;17.10;;;2.20;92.50;;;;;;5049270;28;20254;-72
2021/01/05 04:16:33;;;;;;;43.07;15.47;;;2.10;92.30;;;;;;5049696;28;20415;-72
2021/01/05 04:18:59;;;;;;;43.58;16.58;;;2.10;92.30;;;;;;5037464;28;20419;-72
2021/01/05 04:21:25;;;;;;;43.80;18.35;;;2.10;92.50;;;;;;5050715;28;20180;-72
2021/01/05 04:23:51;;;;;;;41.77;16.90;;;2.20;92.40;;;;;;5061172;28;20414;-72
2021/01/05 04:26:17;;;;;;;41.97;16.87;;;2.10;92.20;;;;;;5059698;28;20418;-71
2021/01/05 04:28:42;;;;;;;42.83;17.37;;;2.10;92.20;;;;;;5049154;28;20253;-72
2021/01/05 04:31:08;;;;;;;37.00;16.30;;;2.10;92.40;;;;;;5050715;28;20177;-71
2021/01/05 04:33:34;;;;;;;39.00;15.20;;;2.20;92.40;;;;;;5062663;28;20227;-72
2021/01/05 04:35:59;;;;;;;39.37;17.77;;;2.20;92.40;;;;;;5049219;28;20203;-72
2021/01/05 04:38:25;;;;;;;45.63;17.37;;;2.20;92.30;;;;;;5048791;28;20836;-73
2021/01/05 04:40:52;;;;;;;36.67;17.00;;;2.10;92.30;;;;;;5049647;28;20189;-70
2021/01/05 04:43:20;;;;;;;37.83;14.80;;;2.10;92.60;;;;;;5049946;28;20447;-73
2021/01/05 04:46:04;;;;;;;35.25;15.85;;;2.10;92.80;;;;;;5047988;28;20203;-74
2021/01/05 04:48:40;;;;;;;41.60;17.23;;;2.10;92.90;;;;;;5039077;28;20208;-73
2021/01/05 04:51:33;;;;;;;36.70;16.83;;;2.20;92.80;;;;;;5048671;28;20192;-72
2021/01/05 04:54:13;;;;;;;47.45;17.98;;;2.10;92.90;;;;;;5038021;28;20254;-72
2021/01/05 04:57:09;;;;;;;37.40;16.23;;;2.10;93.10;;;;;;5049660;28;20192;-74
2021/01/05 05:00:22;;;;;;;34.10;16.60;;;2.00;93.00;;;;;;5035411;28;20631;-74
2021/01/05 05:03:15;;;;;;;42.50;15.98;;;2.20;93.10;;;;;;5043797;28;20192;-71
2021/01/05 05:05:52;;;;;;;39.92;18.05;;;2.20;93.10;;;;;;5020330;28;20214;-73
2021/01/05 05:08:37;;;;;;;43.47;17.55;;;2.10;93.30;;;;;;5049886;28;20613;-73
2021/01/05 05:11:29;;;;;;;41.50;18.02;;;2.10;93.80;;;;;;5049751;28;20184;-73
2021/01/05 05:14:03;;;;;;;41.03;18.05;;;2.00;94.20;;;;;;5067900;28;20679;-73
2021/01/05 05:16:43;;;;;;;48.28;18.95;;;2.00;94.50;;;;;;5052237;28;20172;-72
2021/01/05 05:19:37;;;;;;;38.33;17.80;;;2.00;94.70;;;;;;5038268;28;20196;-72
2021/01/05 05:22:12;;;;;;;36.75;16.52;;;2.10;94.90;;;;;;5048328;28;20192;-72
2021/01/05 05:24:49;;;;;;;50.78;19.02;;;2.20;95.00;;;;;;5048377;28;20210;-72
2021/01/05 05:27:22;;;;;;;40.50;17.67;;;2.20;94.80;;;;;;5069144;28;20187;-73
2021/01/05 05:29:53;;;;;;;44.15;19.25;;;2.10;94.60;;;;;;5068643;28;20594;-72
2021/01/05 05:32:49;;;;;;;37.35;18.00;;;2.00;94.90;;;;;;5072505;28;20211;-73
2021/01/05 05:35:37;;;;;;;44.85;18.13;;;2.10;95.10;;;;;;5041677;28;20188;-72
2021/01/05 05:38:06;;;;;;;39.28;17.95;;;2.10;95.20;;;;;;5052354;28;20199;-72
2021/01/05 05:40:50;;;;;;;46.17;18.33;;;2.20;95.20;;;;;;5068778;28;20222;-73
2021/01/05 05:43:43;;;;;;;43.25;18.95;;;2.20;95.10;;;;;;5066913;28;20214;-73
2021/01/05 05:46:14;;;;;;;42.90;18.05;;;2.30;94.90;;;;;;5076884;28;20188;-72
2021/01/05 05:49:00;;;;;;;36.33;17.80;;;2.30;94.90;;;;;;5049984;28;20179;-73
2021/01/05 05:51:32;;;;;;;43.25;17.75;;;2.30;94.80;;;;;;5050163;28;20246;-72
2021/01/05 05:54:08;;;;;;;34.55;16.92;;;2.30;94.70;;;;;;5063027;28;20612;-72
2021/01/05 05:57:02;;;;;;;39.50;17.73;;;2.30;94.60;;;;;;5068389;28;20267;-73
2021/01/05 05:59:41;;;;;;;44.70;17.63;;;2.30;94.70;;;;;;5048299;28;20184;-72
2021/01/05 06:02:11;;;;;;;42.70;16.85;;;2.30;94.70;;;;;;5048839;28;20188;-72
2021/01/05 06:04:37;;;;;;;39.08;19.08;;;2.20;94.80;;;;;;5047181;28;20675;-72
2021/01/05 06:07:04;;;;;;;43.42;18.73;;;2.20;95.00;;;;;;5048656;28;20655;-72
2021/01/05 06:09:30;;;;;;;44.15;19.05;;;2.20;95.20;;;;;;5048635;28;20188;-72
2021/01/05 06:11:55;;;;;;;46.90;18.37;;;2.20;95.30;;;;;;5048754;28;20204;-73
2021/01/05 06:14:22;;;;;;;39.77;17.20;;;2.20;95.40;;;;;;5059083;28;20206;-72
2021/01/05 06:16:47;;;;;;;36.47;16.58;;;2.20;95.60;;;;;;5056005;28;20423;-72
2021/01/05 06:19:13;;;;;;;43.67;18.30;;;2.30;95.40;;;;;;5051772;28;20207;-73
2021/01/05 06:21:39;;;;;;;45.90;18.50;;;2.30;95.30;;;;;;5065067;28;20192;-73
2021/01/05 06:24:05;;;;;;;44.57;20.40;;;2.30;95.40;;;;;;5048722;28;20219;-72
2021/01/05 06:26:31;;;;;;;43.78;18.30;;;2.40;95.30;;;;;;5046940;28;20887;-73
2021/01/05 06:28:57;;;;;;;47.43;19.50;;;2.50;95.20;;;;;;5048840;28;20184;-72
2021/01/05 06:31:22;;;;;;;47.27;18.93;;;2.40;94.60;;;;;;5050499;28;20260;-72
2021/01/05 06:33:48;;;;;;;45.13;18.10;;;2.40;94.60;;;;;;5063518;28;20273;-73
2021/01/05 06:36:14;;;;;;;40.33;18.00;;;2.40;94.80;;;;;;5049953;28;20298;-72
2021/01/05 06:38:40;;;;;;;40.67;18.15;;;2.20;95.00;;;;;;5049715;28;20223;-72
2021/01/05 06:41:06;;;;;;;44.07;17.57;;;2.20;95.30;;;;;;5053688;28;20176;-72
2021/01/05 06:43:32;;;;;;;46.10;18.57;;;2.20;95.60;;;;;;5053053;28;20239;-71
2021/01/05 06:45:58;;;;;;;38.33;17.80;;;2.20;95.70;;;;;;5050857;28;20419;-72
2021/01/05 06:48:24;;;;;;;45.22;18.42;;;2.20;95.60;;;;;;5053777;28;20188;-71
2021/01/05 06:50:50;;;;;;;41.10;18.00;;;2.20;95.60;;;;;;5052547;28;20195;-73
2021/01/05 06:53:15;;;;;;;50.57;19.03;;;2.20;95.70;;;;;;5051876;28;20501;-73
2021/01/05 06:55:41;;;;;;;42.97;16.83;;;2.20;95.90;;;;;;5051038;28;20914;-72
2021/01/05 06:58:07;;;;;;;37.93;16.70;;;2.20;95.90;;;;;;5050920;28;20319;-73
2021/01/05 07:00:32;;;;;;;49.30;18.03;;;2.20;96.00;;;;;;5053508;28;20181;-73
2021/01/05 07:02:58;;;;;;;40.07;18.27;;;2.00;96.10;;;;;;5062197;28;20676;-70
2021/01/05 07:05:25;;;;;;;40.40;17.93;;;2.00;96.30;;;;;;5050955;28;20224;-73
2021/01/05 07:07:51;;;;;;;37.40;16.75;;;2.00;96.50;;;;;;5052214;28;20451;-73
2021/01/05 07:10:19;;;;;;;47.40;18.33;;;2.10;96.50;;;;;;5050139;28;20572;-72
2021/01/05 07:12:46;;;;;;;39.08;17.52;;;2.20;96.50;;;;;;5052058;28;20711;-71
2021/01/05 07:15:14;;;;;;;38.60;17.13;;;2.20;96.30;;;;;;5064041;28;21041;-71
2021/01/05 07:17:40;;;;;;;50.10;17.77;;;2.20;96.30;;;;;;5050989;28;20706;-72
2021/01/05 07:20:10;;;;;;;44.03;17.30;;;2.20;96.20;;;;;;5051729;28;20180;-73
2021/01/05 07:22:36;;;;;;;49.25;18.05;;;2.30;96.10;;;;;;5061741;28;20864;-73
2021/01/05 07:25:03;;;;;;;39.05;17.45;;;2.20;95.90;;;;;;5053816;28;20607;-73
2021/01/05 07:27:30;;;;;;;41.03;18.75;;;2.30;96.00;;;;;;5062222;28;20184;-73
2021/01/05 07:29:55;;;;;;;44.95;17.30;;;2.30;96.00;;;;;;5069875;28;20307;-74
2021/01/05 07:32:21;;;;;;;41.97;17.30;;;2.30;96.00;;;;;;5063185;28;20290;-74
2021/01/05 07:34:47;;;;;;;43.97;18.17;;;2.40;96.00;;;;;;5068541;28;20203;-73
2021/01/05 07:37:20;;;;;;;41.40;18.80;;;2.40;95.90;;;;;;5051085;28;20193;-74
2021/01/05 07:39:47;;;;;;;47.67;19.38;;;2.40;95.70;;;;;;5051357;28;20568;-74
2021/01/05 07:42:31;;;;;;;36.58;15.90;;;2.40;95.80;;;;;;5051727;28;20192;-74
2021/01/05 07:44:59;;;;;;;35.78;16.35;;;2.40;95.80;;;;;;5048443;28;20240;-75
2021/01/05 07:47:28;;;;;;;39.83;17.77;;;2.40;95.80;;;;;;5053447;28;20180;-73
2021/01/05 07:49:54;;;;;;;38.47;16.85;;;2.40;95.80;;;;;;5055134;28;20192;-74
2021/01/05 07:52:33;;;;;;;32.87;15.57;;;2.30;95.80;;;;;;5069925;28;20215;-74
2021/01/05 07:54:59;;;;;;;38.22;16.83;;;2.30;96.00;;;;;;5062004;28;20231;-73
2021/01/05 07:57:25;;;;;;;39.97;18.05;;;2.30;96.00;;;;;;5065018;28;20183;-74
2021/01/05 07:59:51;;;;;;;34.47;15.77;;;2.20;96.10;;;;;;5050228;28;20180;-72
2021/01/05 08:02:16;;;;;;;37.20;16.20;;;2.20;96.40;;;;;;5050276;28;20718;-73
2021/01/05 08:04:43;;;;;;;42.70;16.97;;;2.20;96.50;;;;;;5049315;28;20458;-72
2021/01/05 08:07:10;;;;;;;39.63;16.45;;;2.20;96.40;;;;;;5050824;28;20184;-73
2021/01/05 08:09:40;;;;;;;38.83;16.90;;;2.20;96.50;;;;;;5051429;28;20329;-74
2021/01/05 08:12:18;;;;;;;41.67;17.40;;;2.20;96.40;;;;;;5048617;28;20204;-74
2021/01/05 08:14:45;;;;;;;35.72;15.85;;;2.20;96.70;;;;;;5061146;28;20222;-74
2021/01/05 08:17:11;;;;;;;39.38;15.93;;;2.10;96.80;;;;;;5051664;28;20177;-73
2021/01/05 08:19:36;;;;;;;34.80;15.32;;;2.10;97.00;;;;;;5050437;28;20200;-72
2021/01/05 08:22:03;;;;;;;35.30;15.20;;;2.10;97.10;;;;;;5050950;28;20191;-73
2021/01/05 08:24:29;;;;;;;30.58;14.55;;;2.10;97.20;;;;;;5050863;28;20204;-75
2021/01/05 08:26:55;;;;;;;29.30;14.30;;;2.20;97.20;;;;;;5051109;28;20184;-73
2021/01/05 08:29:21;;;;;;;35.53;16.13;;;2.20;97.30;;;;;;5050878;28;20189;-73
2021/01/05 08:31:48;;;;;;;30.67;14.50;;;2.20;97.30;;;;;;5051543;28;20455;-74
2021/01/05 08:34:14;;;;;;;35.35;15.75;;;2.20;97.30;;;;;;5051436;28;20470;-72
2021/01/05 08:36:40;;;;;;;35.03;14.88;;;2.20;97.20;;;;;;5049441;28;20212;-74
2021/01/05 08:39:07;;;;;;;34.92;15.10;;;2.20;97.20;;;;;;5050881;28;20192;-73
2021/01/05 08:41:32;;;;;;;32.60;15.55;;;2.20;97.30;;;;;;5064317;28;20349;-74
2021/01/05 08:43:58;;;;;;;38.47;14.83;;;2.10;97.40;;;;;;5061489;28;20726;-74
2021/01/05 08:46:27;;;;;;;34.63;14.32;;;2.10;97.70;;;;;;5065474;28;20176;-73
2021/01/05 08:48:54;;;;;;;34.10;14.13;;;2.20;97.90;;;;;;5050726;28;20188;-73
2021/01/05 08:51:22;;;;;;;30.35;15.52;;;2.20;97.70;;;;;;5068370;28;20520;-73
2021/01/05 08:53:48;;;;;;;32.67;15.40;;;2.10;97.70;;;;;;5054162;28;20695;-74
2021/01/05 08:56:23;;;;;;;28.88;14.65;;;2.10;97.80;;;;;;5051477;28;20192;-73
2021/01/05 08:58:50;;;;;;;36.47;15.15;;;2.00;97.80;;;;;;5054149;28;20251;-72
2021/01/05 09:01:16;;;;;;;35.85;15.10;;;2.00;97.90;;;;;;5060672;28;20209;-72
2021/01/05 09:03:42;;;;;;;34.10;15.77;;;2.00;98.00;;;;;;5072973;28;20211;-73
2021/01/05 09:06:08;;;;;;;32.87;15.57;;;2.00;97.90;;;;;;5068942;28;20196;-72
2021/01/05 09:08:35;;;;;;;37.22;16.63;;;2.10;98.00;;;;;;5053241;28;20784;-72
2021/01/05 09:11:05;;;;;;;33.05;15.77;;;2.10;98.00;;;;;;5068149;28;20199;-73
2021/01/05 09:13:30;;;;;;;31.85;13.70;;;2.10;97.80;;;;;;5063346;28;20212;-75
2021/01/05 09:15:56;;;;;;;33.50;15.50;;;2.20;97.80;;;;;;5068096;28;20198;-73
2021/01/05 09:18:23;;;;;;;29.67;14.43;;;2.20;97.90;;;;;;5069897;28;20587;-74
2021/01/05 09:20:51;;;;;;;35.55;15.23;;;2.20;97.90;;;;;;5048368;28;20268;-74
2021/01/05 09:23:22;;;;;;;34.58;15.68;;;2.20;97.80;;;;;;5049516;28;20212;-73
2021/01/05 09:25:57;;;;;;;33.10;15.30;;;2.30;97.70;;;;;;5048860;28;20191;-73
2021/01/05 09:28:26;;;;;;;35.90;14.77;;;2.40;97.70;;;;;;5058086;28;20187;-74
2021/01/05 09:30:52;;;;;;;30.27;14.00;;;2.40;97.40;;;;;;5067909;28;20245;-74
2021/01/05 09:33:19;;;;;;;34.43;14.97;;;2.50;97.30;;;;;;5065668;28;20647;-73
2021/01/05 09:35:48;;;;;;;32.47;15.27;;;2.60;97.20;;;;;;5046919;28;20546;-74
2021/01/05 09:38:14;;;;;;;36.33;15.63;;;2.60;96.90;;;;;;5049487;28;20180;-74
2021/01/05 09:40:42;;;;;;;30.63;14.52;;;2.60;96.80;;;;;;5048321;28;20184;-75
2021/01/05 09:43:10;;;;;;;35.53;15.18;;;2.60;96.70;;;;;;5048039;28;20703;-74
2021/01/05 09:45:40;;;;;;;33.17;13.88;;;2.50;96.60;;;;;;5051805;28;20211;-74
2021/01/05 09:48:07;;;;;;;33.53;15.88;;;2.60;96.70;;;;;;5056308;28;20188;-73
2021/01/05 09:50:33;;;;;;;28.90;13.98;;;2.60;96.70;;;;;;5060639;28;20190;-73
2021/01/05 09:52:59;;;;;;;32.80;14.63;;;2.60;96.70;;;;;;5053742;28;20258;-73
2021/01/05 09:55:25;;;;;;;33.47;14.87;;;2.70;96.70;;;;;;5059499;28;20584;-73
2021/01/05 09:57:52;;;;;;;28.98;14.77;;;2.70;96.50;;;;;;5051330;28;20188;-74
2021/01/05 10:00:19;;;;;;;30.48;14.57;;;2.70;96.40;;;;;;5064836;28;20195;-73
2021/01/05 10:02:45;;;;;;;39.22;15.50;;;2.70;96.00;;;;;;5060111;28;20248;-71
2021/01/05 10:05:11;;;;;;;35.87;15.93;;;2.70;95.90;;;;;;5052665;28;20272;-74
2021/01/05 10:07:37;;;;;;;40.40;16.98;;;2.70;96.00;;;;;;5055876;28;20383;-73
2021/01/05 10:10:05;;;;;;;34.80;15.37;;;2.60;96.10;;;;;;5049014;28;20316;-73
2021/01/05 10:12:31;;;;;;;37.07;16.80;;;2.60;96.20;;;;;;5056060;28;20476;-75
2021/01/05 10:14:56;;;;;;;36.57;16.97;;;2.60;96.40;;;;;;5054138;28;20438;-74
2021/01/05 10:17:22;;;;;;;35.20;15.97;;;2.70;96.40;;;;;;5067695;28;20187;-74
2021/01/05 10:19:48;;;;;;;39.80;15.50;;;2.70;96.30;;;;;;5053124;28;20216;-71
2021/01/05 10:22:14;;;;;;;37.70;16.50;;;2.80;96.30;;;;;;5061016;28;20555;-74
2021/01/05 10:24:39;;;;;;;33.67;15.20;;;2.80;96.40;;;;;;5071916;28;20538;-75
2021/01/05 10:27:05;;;;;;;30.60;15.00;;;2.90;96.30;;;;;;5073423;28;20554;-75
2021/01/05 10:29:31;;;;;;;35.73;15.40;;;2.90;95.80;;;;;;5071278;28;20219;-73
2021/01/05 10:31:57;;;;;;;36.43;15.87;;;3.00;95.70;;;;;;5051634;28;20464;-74
2021/01/05 10:34:24;;;;;;;38.17;17.23;;;2.90;95.40;;;;;;5051554;28;20300;-74
2021/01/05 10:36:58;;;;;;;35.72;16.05;;;2.80;95.50;;;;;;5064541;28;20215;-75
2021/01/05 10:39:28;;;;;;;36.97;15.75;;;2.80;95.70;;;;;;5073385;28;20662;-74
2021/01/05 10:41:54;;;;;;;40.38;16.55;;;2.70;95.70;;;;;;5075211;28;20221;-75
2021/01/05 10:44:21;;;;;;;32.70;15.13;;;2.80;95.90;;;;;;5058805;28;20709;-74
2021/01/05 10:46:48;;;;;;;33.28;14.95;;;2.70;95.80;;;;;;5053633;28;20191;-72
2021/01/05 10:49:15;;;;;;;40.92;16.23;;;2.80;96.00;;;;;;5065867;28;20249;-75
2021/01/05 10:51:49;;;;;;;32.72;15.55;;;2.80;95.80;;;;;;5061887;28;20191;-74
2021/01/05 10:54:20;;;;;;;41.88;16.15;;;2.90;95.70;;;;;;5066733;28;20211;-74
2021/01/05 10:56:46;;;;;;;44.22;17.35;;;3.00;95.50;;;;;;5073185;28;20191;-74
2021/01/05 10:59:13;;;;;;;42.47;17.38;;;3.00;95.50;;;;;;5071230;28;20184;-74
2021/01/05 11:01:39;;;;;;;31.40;14.38;;;3.00;95.20;;;;;;5072103;28;20194;-75
2021/01/05 11:04:05;;;;;;;31.87;14.57;;;3.00;95.00;;;;;;5071800;28;20204;-74
2021/01/05 11:06:31;;;;;;;47.72;16.35;;;3.00;95.20;;;;;;5053537;28;20178;-73
2021/01/05 11:08:57;;;;;;;36.23;15.87;;;3.00;94.90;;;;;;5051992;28;20556;-74
2021/01/05 11:11:23;;;;;;;32.67;15.00;;;2.90;94.90;;;;;;5069568;28;20693;-74
2021/01/05 11:13:49;;;;;;;31.25;14.35;;;2.90;95.00;;;;;;5071625;28;20227;-75
2021/01/05 11:16:15;;;;;;;38.60;17.27;;;2.90;95.10;;;;;;5053008;28;20184;-75
2021/01/05 11:18:42;;;;;;;33.40;15.90;;;2.90;95.20;;;;;;5052108;28;20185;-73
2021/01/05 11:21:15;;;;;;;38.67;16.55;;;2.90;95.30;;;;;;5052550;28;20429;-74
2021/01/05 11:23:41;;;;;;;32.45;15.82;;;2.90;95.20;;;;;;5051664;28;20338;-75
2021/01/05 11:26:08;;;;;;;39.72;15.57;;;2.90;95.30;;;;;;5050947;28;20195;-74
2021/01/05 11:28:35;;;;;;;38.72;16.33;;;3.00;95.40;;;;;;5053663;28;20728;-74
2021/01/05 11:31:01;;;;;;;38.70;15.90;;;3.00;95.30;;;;;;5065694;28;20220;-74
2021/01/05 11:33:26;;;;;;;37.35;15.10;;;3.00;95.00;;;;;;5051177;28;20228;-74
2021/01/05 11:35:52;;;;;;;37.70;15.63;;;3.10;95.10;;;;;;5053783;28;20176;-74
2021/01/05 11:38:18;;;;;;;38.88;15.45;;;3.10;94.90;;;;;;5063258;28;20328;-73
2021/01/05 11:40:44;;;;;;;35.27;16.00;;;3.10;94.80;;;;;;5058383;28;20666;-73
2021/01/05 11:43:10;;;;;;;32.83;15.97;;;3.10;94.80;;;;;;5060745;28;20218;-73
2021/01/05 11:45:36;;;;;;;37.15;15.80;;;3.00;94.80;;;;;;5050669;28;21151;-74
2021/01/05 11:48:02;;;;;;;35.73;15.70;;;2.90;94.80;;;;;;5060956;28;20188;-74
2021/01/05 11:50:28;;;;;;;34.83;15.05;;;2.90;95.20;;;;;;5066621;28;20427;-74
2021/01/05 11:52:54;;;;;;;36.93;15.03;;;2.90;95.50;;;;;;5048741;28;20246;-74
2021/01/05 11:55:20;;;;;;;43.70;17.70;;;2.90;95.60;;;;;;5048858;28;20247;-74
2021/01/05 11:57:46;;;;;;;37.40;17.00;;;3.00;95.60;;;;;;5051559;28;20179;-73
2021/01/05 12:00:17;;;;;;;42.53;17.10;;;3.00;95.50;;;;;;5051718;28;20435;-74
2021/01/05 12:02:43;;;;;;;38.65;16.90;;;2.90;95.30;;;;;;5062727;28;20191;-73
2021/01/05 12:05:13;;;;;;;33.57;15.70;;;3.00;95.40;;;;;;5056213;28;20212;-74
2021/01/05 12:07:38;;;;;;;36.55;14.75;;;3.00;95.40;;;;;;5041890;28;20189;-74
2021/01/05 12:10:05;;;;;;;32.40;16.00;;;2.80;95.30;;;;;;5054500;28;20209;-75
2021/01/05 12:12:30;;;;;;;36.97;15.93;;;2.80;95.50;;;;;;5053957;28;20973;-74
2021/01/05 12:14:56;;;;;;;38.53;15.20;;;2.90;95.60;;;;;;5066053;28;20294;-75
2021/01/05 12:17:22;;;;;;;32.27;15.90;;;3.00;95.50;;;;;;5073122;28;20188;-74
2021/01/05 12:19:48;;;;;;;40.10;16.00;;;3.00;95.40;;;;;;5072622;28;20658;-74
2021/01/05 12:22:13;;;;;;;38.73;15.80;;;3.10;95.30;;;;;;5069087;28;20194;-74
2021/01/05 12:24:42;;;;;;;34.40;14.47;;;3.20;95.20;;;;;;5062514;28;20211;-74
2021/01/05 12:27:09;;;;;;;37.47;15.75;;;3.20;94.80;;;;;;5071910;28;20271;-74
2021/01/05 12:29:41;;;;;;;34.35;15.43;;;3.10;94.60;;;;;;5071468;28;20184;-75
2021/01/05 12:32:16;;;;;;;34.30;15.82;;;3.10;94.70;;;;;;5071500;28;20207;-74
2021/01/05 12:34:49;;;;;;;28.13;13.77;;;3.20;94.60;;;;;;5068070;28;20288;-75
2021/01/05 12:37:18;;;;;;;36.22;14.32;;;3.10;94.30;;;;;;5059504;28;20677;-75
2021/01/05 12:39:44;;;;;;;37.65;16.77;;;3.20;94.60;;;;;;5062131;28;20780;-76
2021/01/05 12:42:21;;;;;;;40.20;16.47;;;3.20;94.40;;;;;;5051840;28;20185;-75
2021/01/05 12:44:49;;;;;;;35.55;15.15;;;3.20;94.40;;;;;;5050037;28;20208;-76
2021/01/05 12:47:15;;;;;;;34.45;15.15;;;3.20;94.60;;;;;;5064483;28;20184;-75
2021/01/05 12:49:41;;;;;;;36.17;15.87;;;3.20;94.70;;;;;;5051903;28;20254;-74
2021/01/05 12:52:10;;;;;;;35.37;15.03;;;3.20;94.60;;;;;;5051021;28;20204;-75